createdAt,value
2018-03-08T00:01:11.613Z,5.23
2018-03-08T00:03:39.940Z,5.67
2018-03-08T00:06:08.293Z,4.73
2018-03-08T00:08:36.603Z,4.00
2018-03-08T00:11:04.914Z,5.37
2018-03-08T00:13:33.241Z,5.90
2018-03-08T00:16:01.564Z,4.50
2018-03-08T00:18:29.884Z,4.67
2018-03-08T00:20:58.194Z,4.70
2018-03-08T00:23:26.614Z,4.37
2018-03-08T00:25:54.904Z,4.70
2018-03-08T00:28:23.292Z,4.27
2018-03-08T00:30:51.595Z,4.23
2018-03-08T00:33:19.948Z,3.73
2018-03-08T00:35:48.251Z,4.47
2018-03-08T00:38:16.601Z,4.47
2018-03-08T00:40:44.988Z,4.00
2018-03-08T00:43:13.315Z,3.93
2018-03-08T00:45:41.617Z,4.63
2018-03-08T00:48:10.047Z,4.47
2018-03-08T00:50:38.446Z,3.63
2018-03-08T00:53:06.878Z,4.00
2018-03-08T00:55:35.230Z,3.97
2018-03-08T00:58:03.537Z,3.50
2018-03-08T01:00:31.857Z,4.23
2018-03-08T01:03:00.174Z,4.30
2018-03-08T01:05:28.490Z,4.13
2018-03-08T01:07:56.869Z,3.87
2018-03-08T01:10:25.201Z,3.67
2018-03-08T01:12:53.515Z,3.93
2018-03-08T01:15:21.929Z,4.20
2018-03-08T01:17:50.446Z,4.23
2018-03-08T01:20:18.836Z,4.80
2018-03-08T01:22:47.140Z,4.30
2018-03-08T01:25:15.523Z,4.23
2018-03-08T01:27:43.837Z,5.90
2018-03-08T01:30:12.220Z,5.43
2018-03-08T01:32:40.539Z,3.80
2018-03-08T01:35:08.845Z,3.60
2018-03-08T01:37:37.155Z,4.93
2018-03-08T01:40:05.509Z,4.27
2018-03-08T01:42:33.816Z,6.07
2018-03-08T01:45:02.198Z,6.17
2018-03-08T01:47:30.492Z,5.57
2018-03-08T01:49:58.823Z,4.60
2018-03-08T01:52:27.242Z,4.37
2018-03-08T01:54:55.697Z,4.63
2018-03-08T01:57:24.010Z,3.87
2018-03-08T01:59:52.405Z,4.33
2018-03-08T02:02:20.755Z,3.93
2018-03-08T02:04:49.049Z,4.57
2018-03-08T02:07:17.373Z,3.43
2018-03-08T02:09:45.759Z,3.60
2018-03-08T02:12:14.154Z,3.73
2018-03-08T02:14:42.542Z,3.37
2018-03-08T02:17:10.869Z,3.27
2018-03-08T02:19:39.157Z,3.93
2018-03-08T02:22:07.751Z,4.33
2018-03-08T02:24:36.049Z,4.13
2018-03-08T02:27:04.593Z,3.97
2018-03-08T02:29:32.905Z,4.30
2018-03-08T02:32:01.285Z,3.60
2018-03-08T02:34:29.599Z,4.13
2018-03-08T02:36:57.908Z,4.13
2018-03-08T02:39:26.270Z,4.03
2018-03-08T02:41:54.623Z,4.50
2018-03-08T02:44:22.935Z,3.63
2018-03-08T02:46:51.249Z,4.97
2018-03-08T02:49:19.854Z,4.20
2018-03-08T02:51:48.272Z,4.87
2018-03-08T02:54:16.555Z,4.70
2018-03-08T02:56:44.941Z,4.83
2018-03-08T02:59:13.303Z,5.10
2018-03-08T03:01:41.607Z,4.97
2018-03-08T03:04:09.947Z,4.70
2018-03-08T03:06:38.300Z,4.97
2018-03-08T03:09:06.617Z,5.57
2018-03-08T03:11:34.935Z,5.20
2018-03-08T03:14:03.261Z,4.90
2018-03-08T03:16:31.667Z,5.77
2018-03-08T03:18:59.989Z,4.97
2018-03-08T03:21:28.302Z,5.13
2018-03-08T03:23:56.692Z,4.93
2018-03-08T03:26:25.114Z,5.43
2018-03-08T03:28:53.454Z,5.30
2018-03-08T03:31:21.795Z,5.00
2018-03-08T03:33:50.193Z,5.13
2018-03-08T03:36:18.774Z,4.70
2018-03-08T03:38:47.089Z,5.47
2018-03-08T03:41:16.373Z,4.90
2018-03-08T03:43:44.687Z,4.80
2018-03-08T03:46:13.113Z,4.57
2018-03-08T03:48:41.469Z,5.73
2018-03-08T03:51:09.863Z,5.33
2018-03-08T03:53:38.174Z,5.17
2018-03-08T03:56:06.482Z,5.27
2018-03-08T03:58:34.875Z,5.73
2018-03-08T04:01:10.659Z,5.73
2018-03-08T04:03:38.990Z,6.67
2018-03-08T04:06:07.374Z,5.77
2018-03-08T04:08:35.666Z,5.47
2018-03-08T04:11:03.977Z,6.00
2018-03-08T04:13:32.351Z,5.80
2018-03-08T04:16:00.740Z,6.43
2018-03-08T04:18:29.054Z,5.63
2018-03-08T04:20:57.415Z,5.87
2018-03-08T04:23:25.730Z,5.80
2018-03-08T04:25:54.064Z,5.50
2018-03-08T04:28:22.378Z,6.60
2018-03-08T04:30:50.707Z,6.20
2018-03-08T04:33:19.030Z,6.20
2018-03-08T04:35:47.349Z,5.83
2018-03-08T04:38:15.758Z,6.90
2018-03-08T04:40:44.198Z,7.10
2018-03-08T04:43:12.493Z,7.10
2018-03-08T04:45:40.932Z,6.77
2018-03-08T04:48:09.232Z,7.20
2018-03-08T04:50:37.549Z,7.63
2018-03-08T04:53:05.901Z,7.07
2018-03-08T04:55:34.232Z,6.50
2018-03-08T04:58:02.594Z,8.50
2018-03-08T05:00:30.972Z,7.87
2018-03-08T05:02:59.287Z,8.07
2018-03-08T05:05:27.617Z,7.23
2018-03-08T05:07:55.948Z,8.03
2018-03-08T05:10:24.345Z,6.93
2018-03-08T05:12:52.676Z,8.73
2018-03-08T05:15:21.057Z,8.27
2018-03-08T05:17:49.381Z,7.77
2018-03-08T05:20:18.218Z,7.90
2018-03-08T05:22:46.618Z,8.30
2018-03-08T05:25:14.918Z,8.33
2018-03-08T05:27:43.251Z,9.30
2018-03-08T05:30:11.589Z,8.33
2018-03-08T05:32:40.100Z,9.13
2018-03-08T05:35:08.422Z,10.30
2018-03-08T05:37:36.754Z,9.80
2018-03-08T05:40:05.187Z,8.43
2018-03-08T05:42:33.516Z,10.70
2018-03-08T05:45:01.817Z,9.10
2018-03-08T05:47:30.966Z,10.33
2018-03-08T05:49:59.338Z,10.73
2018-03-08T05:52:27.726Z,11.20
2018-03-08T05:54:56.045Z,9.97
2018-03-08T05:57:24.390Z,10.13
2018-03-08T05:59:52.705Z,9.77
2018-03-08T06:02:21.202Z,9.70
2018-03-08T06:04:49.524Z,9.83
2018-03-08T06:07:17.927Z,9.23
2018-03-08T06:09:47.099Z,9.50
2018-03-08T06:12:15.436Z,10.00
2018-03-08T06:14:43.976Z,9.07
2018-03-08T06:17:12.291Z,9.60
2018-03-08T06:19:40.622Z,9.33
2018-03-08T06:22:09.188Z,8.73
2018-03-08T06:24:37.497Z,8.77
2018-03-08T06:27:05.842Z,8.37
2018-03-08T06:29:34.229Z,9.30
2018-03-08T06:32:02.559Z,10.10
2018-03-08T06:34:30.901Z,8.30
2018-03-08T06:36:59.205Z,8.77
2018-03-08T06:39:27.685Z,8.60
2018-03-08T06:41:56.003Z,9.63
2018-03-08T06:44:24.375Z,8.87
2018-03-08T06:46:52.771Z,9.73
2018-03-08T06:49:21.091Z,8.40
2018-03-08T06:51:49.411Z,9.30
2018-03-08T06:54:17.851Z,10.40
2018-03-08T06:56:46.156Z,9.87
2018-03-08T06:59:14.515Z,9.23
2018-03-08T07:01:42.837Z,8.57
2018-03-08T07:04:11.241Z,9.17
2018-03-08T07:06:39.603Z,10.40
2018-03-08T07:09:07.920Z,10.13
2018-03-08T07:11:36.265Z,10.63
2018-03-08T07:14:04.592Z,9.67
2018-03-08T07:16:32.957Z,10.77
2018-03-08T07:19:01.372Z,9.23
2018-03-08T07:21:29.716Z,9.97
2018-03-08T07:23:58.046Z,8.87
2018-03-08T07:26:26.441Z,10.03
2018-03-08T07:28:54.754Z,8.97
2018-03-08T07:31:23.094Z,9.03
2018-03-08T07:33:51.401Z,9.27
2018-03-08T07:36:19.791Z,9.77
2018-03-08T07:38:48.196Z,9.17
2018-03-08T07:41:16.503Z,8.00
2018-03-08T07:43:44.804Z,8.73
2018-03-08T07:46:13.132Z,10.10
2018-03-08T07:48:41.461Z,9.47
2018-03-08T07:51:09.785Z,8.50
2018-03-08T07:53:38.098Z,9.53
2018-03-08T07:56:06.525Z,9.23
2018-03-08T07:58:34.839Z,9.90
2018-03-08T08:01:03.178Z,9.13
2018-03-08T08:03:31.512Z,9.87
2018-03-08T08:06:11.693Z,10.27
2018-03-08T08:11:33.777Z,9.50
2018-03-08T08:14:02.077Z,9.30
2018-03-08T08:16:30.410Z,9.13
2018-03-08T08:18:58.724Z,10.60
2018-03-08T08:21:27.050Z,12.43
2018-03-08T08:23:55.376Z,19.37
2018-03-08T08:26:23.728Z,11.57
2018-03-08T08:28:52.086Z,11.87
2018-03-08T08:31:20.508Z,10.20
2018-03-08T08:33:48.834Z,10.20
2018-03-08T08:36:17.153Z,9.60
2018-03-08T08:38:45.578Z,9.90
2018-03-08T08:41:13.896Z,9.03
2018-03-08T08:43:42.223Z,9.90
2018-03-08T08:46:10.555Z,9.90
2018-03-08T08:48:38.884Z,10.90
2018-03-08T08:51:07.215Z,9.90
2018-03-08T08:53:36.286Z,13.30
2018-03-08T08:56:04.589Z,10.77
2018-03-08T08:58:32.920Z,11.63
2018-03-08T09:01:01.312Z,12.97
2018-03-08T09:03:29.662Z,10.70
2018-03-08T09:05:57.999Z,10.50
2018-03-08T09:08:26.324Z,14.63
2018-03-08T09:10:54.654Z,9.50
2018-03-08T09:13:22.965Z,10.67
2018-03-08T09:15:51.315Z,10.77
2018-03-08T09:18:19.844Z,10.43
2018-03-08T09:20:48.175Z,10.27
2018-03-08T09:23:16.582Z,9.07
2018-03-08T09:25:44.906Z,9.23
2018-03-08T09:28:13.323Z,9.80
2018-03-08T09:30:41.648Z,8.87
2018-03-08T09:33:09.975Z,9.20
2018-03-08T09:35:38.290Z,9.50
2018-03-08T09:38:06.593Z,9.23
2018-03-08T09:40:37.735Z,8.97
2018-03-08T09:43:06.062Z,10.03
2018-03-08T09:45:34.417Z,8.43
2018-03-08T09:48:02.836Z,7.33
2018-03-08T09:50:31.153Z,8.20
2018-03-08T09:53:00.282Z,8.57
2018-03-08T09:55:28.683Z,8.33
2018-03-08T09:57:56.982Z,7.97
2018-03-08T10:00:25.308Z,9.03
2018-03-08T10:02:53.661Z,7.47
2018-03-08T10:05:22.045Z,8.50
2018-03-08T10:07:50.394Z,8.93
2018-03-08T10:10:18.706Z,8.13
2018-03-08T10:12:47.062Z,8.30
2018-03-08T10:15:15.350Z,9.00
2018-03-08T10:17:43.710Z,9.63
2018-03-08T10:20:12.097Z,8.50
2018-03-08T10:22:40.481Z,8.60
2018-03-08T10:25:08.869Z,8.80
2018-03-08T10:27:37.278Z,8.60
2018-03-08T10:30:05.666Z,8.83
2018-03-08T10:32:34.004Z,8.70
2018-03-08T10:35:02.319Z,7.80
2018-03-08T10:37:30.630Z,6.37
2018-03-08T10:39:59.014Z,6.40
2018-03-08T10:44:55.651Z,5.93
2018-03-08T10:47:23.988Z,4.57
2018-03-08T10:49:52.314Z,4.87
2018-03-08T10:52:20.620Z,4.63
2018-03-08T10:54:48.940Z,3.40
2018-03-08T10:57:17.262Z,3.90
2018-03-08T10:59:45.640Z,3.90
2018-03-08T11:02:17.293Z,3.90
2018-03-08T11:04:51.215Z,3.80
2018-03-08T11:07:19.906Z,3.60
2018-03-08T11:09:48.226Z,3.40
2018-03-08T11:12:16.536Z,3.50
2018-03-08T11:14:44.947Z,3.10
2018-03-08T11:17:13.258Z,3.07
2018-03-08T11:19:41.638Z,3.67
2018-03-08T11:22:09.942Z,3.03
2018-03-08T11:24:38.368Z,4.37
2018-03-08T11:27:06.764Z,3.27
2018-03-08T11:29:35.090Z,3.47
2018-03-08T11:32:03.417Z,2.67
2018-03-08T11:34:31.826Z,3.00
2018-03-08T11:37:01.927Z,2.33
2018-03-08T11:39:30.965Z,2.10
2018-03-08T11:41:59.298Z,2.10
2018-03-08T11:44:27.697Z,2.00
2018-03-08T11:46:56.288Z,2.00
2018-03-08T11:49:24.642Z,2.10
2018-03-08T11:51:53.029Z,2.13
2018-03-08T11:54:21.612Z,1.70
2018-03-08T11:56:50.010Z,2.00
2018-03-08T11:59:18.344Z,2.77
2018-03-08T12:01:46.687Z,2.97
2018-03-08T12:04:15.090Z,2.00
2018-03-08T12:06:43.502Z,2.03
2018-03-08T12:09:11.865Z,1.63
2018-03-08T12:11:40.175Z,1.93
2018-03-08T12:14:08.535Z,1.80
2018-03-08T12:16:36.877Z,2.03
2018-03-08T12:19:06.465Z,2.13
2018-03-08T12:21:35.135Z,1.93
2018-03-08T12:24:03.537Z,2.47
2018-03-08T12:26:31.907Z,2.37
2018-03-08T12:29:00.223Z,2.13
2018-03-08T12:31:28.548Z,2.07
2018-03-08T12:33:57.309Z,2.60
2018-03-08T12:36:25.641Z,2.37
2018-03-08T12:38:53.956Z,2.43
2018-03-08T12:41:22.287Z,2.27
2018-03-08T12:43:50.591Z,1.90
2018-03-08T12:46:18.962Z,1.70
2018-03-08T12:48:47.318Z,1.77
2018-03-08T12:51:15.628Z,2.13
2018-03-08T12:53:45.720Z,2.33
2018-03-08T12:56:14.079Z,2.00
2018-03-08T12:58:42.419Z,1.93
2018-03-08T13:01:10.825Z,2.53
2018-03-08T13:03:39.162Z,2.30
2018-03-08T13:06:09.046Z,1.93
2018-03-08T13:08:37.417Z,2.50
2018-03-08T13:11:05.753Z,1.87
2018-03-08T13:13:34.086Z,1.87
2018-03-08T13:16:02.408Z,2.30
2018-03-08T13:18:30.743Z,1.90
2018-03-08T13:20:59.063Z,2.33
2018-03-08T13:23:27.503Z,1.57
2018-03-08T13:25:55.953Z,1.60
2018-03-08T13:28:24.275Z,2.40
2018-03-08T13:30:52.973Z,2.57
2018-03-08T13:33:21.310Z,2.23
2018-03-08T13:35:49.611Z,1.87
2018-03-08T13:38:18.055Z,2.43
2018-03-08T13:40:46.407Z,2.27
2018-03-08T13:43:14.714Z,2.90
2018-03-08T13:45:43.077Z,2.20
2018-03-08T13:48:11.393Z,2.23
2018-03-08T13:50:39.849Z,2.17
2018-03-08T13:53:08.198Z,2.57
2018-03-08T13:55:36.555Z,2.00
2018-03-08T13:58:05.002Z,2.70
2018-03-08T14:00:33.526Z,1.63
2018-03-08T14:03:01.967Z,2.10
2018-03-08T14:05:30.355Z,2.10
2018-03-08T14:07:58.662Z,2.87
2018-03-08T14:10:27.034Z,1.80
2018-03-08T14:12:55.343Z,2.47
2018-03-08T14:15:23.667Z,1.90
2018-03-08T14:17:52.029Z,2.00
2018-03-08T14:20:20.417Z,2.50
2018-03-08T14:22:48.742Z,2.20
2018-03-08T14:25:17.124Z,3.03
2018-03-08T14:27:45.447Z,2.53
2018-03-08T14:30:14.117Z,2.30
2018-03-08T14:32:42.444Z,2.47
2018-03-08T14:35:10.851Z,2.23
2018-03-08T14:37:39.292Z,2.30
2018-03-08T14:40:07.617Z,2.63
2018-03-08T14:42:35.996Z,2.83
2018-03-08T14:45:04.340Z,2.43
2018-03-08T14:47:32.728Z,2.40
2018-03-08T14:50:01.117Z,2.43
2018-03-08T14:52:29.418Z,2.30
2018-03-08T14:54:57.743Z,2.27
2018-03-08T14:57:26.057Z,2.33
2018-03-08T14:59:54.466Z,2.43
2018-03-08T15:02:22.785Z,2.37
2018-03-08T15:04:51.194Z,2.07
2018-03-08T15:07:19.518Z,2.13
2018-03-08T15:09:47.855Z,2.30
2018-03-08T15:12:16.215Z,2.30
2018-03-08T15:14:44.523Z,2.77
2018-03-08T15:17:12.901Z,1.90
2018-03-08T15:19:41.287Z,1.87
2018-03-08T15:22:09.610Z,2.27
2018-03-08T15:24:37.926Z,2.40
2018-03-08T15:27:06.477Z,2.20
2018-03-08T15:29:34.794Z,2.63
2018-03-08T15:32:03.133Z,1.90
2018-03-08T15:34:31.532Z,2.63
2018-03-08T15:36:59.919Z,1.87
2018-03-08T15:39:28.228Z,2.13
2018-03-08T15:41:58.179Z,1.90
2018-03-08T15:44:26.880Z,2.77
2018-03-08T15:46:55.209Z,2.20
2018-03-08T15:49:23.519Z,2.13
2018-03-08T15:51:51.918Z,1.97
2018-03-08T15:54:20.258Z,2.10
2018-03-08T15:56:48.586Z,2.37
2018-03-08T15:59:16.907Z,2.67
2018-03-08T16:01:45.250Z,2.40
2018-03-08T16:04:13.582Z,2.17
2018-03-08T16:09:59.856Z,2.27
2018-03-08T16:12:28.284Z,2.57
2018-03-08T16:14:56.644Z,2.40
2018-03-08T16:17:24.955Z,1.80
2018-03-08T16:19:53.270Z,3.40
2018-03-08T16:22:21.680Z,2.00
2018-03-08T16:24:50.018Z,2.30
2018-03-08T16:27:18.361Z,2.40
2018-03-08T16:29:46.678Z,2.97
2018-03-08T16:32:14.971Z,2.00
2018-03-08T16:34:43.380Z,2.53
2018-03-08T16:37:11.927Z,2.23
2018-03-08T16:39:40.275Z,2.43
2018-03-08T16:42:08.601Z,2.57
2018-03-08T16:44:37.013Z,2.80
2018-03-08T16:47:05.243Z,2.00
2018-03-08T16:49:33.554Z,2.30
2018-03-08T16:52:01.913Z,2.37
2018-03-08T16:54:30.225Z,2.53
2018-03-08T16:56:58.590Z,2.00
2018-03-08T16:59:26.905Z,2.20
2018-03-08T17:01:55.238Z,2.20
2018-03-08T17:04:23.592Z,3.13
2018-03-08T17:06:52.033Z,3.00
2018-03-08T17:09:20.493Z,2.73
2018-03-08T17:11:48.806Z,2.67
2018-03-08T17:14:17.107Z,2.70
2018-03-08T17:16:45.538Z,2.63
2018-03-08T17:19:13.921Z,2.70
2018-03-08T17:21:42.238Z,3.20
2018-03-08T17:24:10.548Z,2.93
2018-03-08T17:26:38.865Z,3.97
2018-03-08T17:29:07.164Z,3.50
2018-03-08T17:31:35.569Z,3.80
2018-03-08T17:34:03.970Z,3.60
2018-03-08T17:36:32.354Z,3.33
2018-03-08T17:39:00.662Z,3.67
2018-03-08T17:41:29.191Z,3.50
2018-03-08T17:43:57.522Z,3.27
2018-03-08T17:46:25.862Z,4.03
2018-03-08T17:48:54.301Z,3.60
2018-03-08T17:51:22.642Z,2.87
2018-03-08T17:53:51.342Z,3.00
2018-03-08T17:56:19.710Z,3.20
2018-03-08T17:58:48.044Z,3.33
2018-03-08T18:01:16.513Z,4.00
2018-03-08T18:03:44.837Z,3.80
2018-03-08T18:06:13.147Z,4.33
2018-03-08T18:08:41.467Z,4.27
2018-03-08T18:11:09.790Z,4.67
2018-03-08T18:13:38.147Z,2.97
2018-03-08T18:16:06.445Z,4.13
2018-03-08T18:18:34.838Z,4.23
2018-03-08T18:21:03.229Z,4.00
2018-03-08T18:23:31.546Z,4.40
2018-03-08T18:25:59.903Z,4.63
2018-03-08T18:28:28.301Z,5.43
2018-03-08T18:30:56.709Z,3.97
2018-03-08T18:33:25.097Z,4.67
2018-03-08T18:35:53.531Z,5.80
2018-03-08T18:38:21.846Z,6.87
2018-03-08T18:40:50.490Z,5.73
2018-03-08T18:43:19.019Z,5.67
2018-03-08T18:45:47.325Z,5.83
2018-03-08T18:48:15.637Z,4.37
2018-03-08T18:50:43.958Z,4.97
2018-03-08T18:53:13.102Z,6.27
2018-03-08T18:55:41.430Z,6.03
2018-03-08T18:58:29.651Z,6.10
2018-03-08T19:00:57.957Z,5.43
2018-03-08T19:03:26.274Z,6.10
2018-03-08T19:05:54.589Z,6.67
2018-03-08T19:08:22.957Z,6.40
2018-03-08T19:10:51.351Z,6.03
2018-03-08T19:13:19.685Z,5.00
2018-03-08T19:15:48.017Z,5.90
2018-03-08T19:18:16.319Z,6.30
2018-03-08T19:20:44.661Z,6.90
2018-03-08T19:23:12.983Z,6.30
2018-03-08T19:25:41.398Z,6.27
2018-03-08T19:28:09.789Z,6.70
2018-03-08T19:30:38.165Z,6.53
2018-03-08T19:33:06.485Z,5.37
2018-03-08T19:35:34.900Z,5.07
2018-03-08T19:38:03.207Z,5.90
2018-03-08T19:40:31.527Z,5.17
2018-03-08T19:42:59.842Z,4.07
2018-03-08T19:45:28.258Z,4.87
2018-03-08T19:47:56.958Z,4.73
2018-03-08T19:50:25.279Z,4.83
2018-03-08T19:52:53.636Z,4.83
2018-03-08T19:55:22.006Z,4.83
2018-03-08T19:57:50.335Z,4.80
2018-03-08T20:00:18.959Z,5.53
2018-03-08T20:02:47.597Z,4.70
2018-03-08T20:05:15.898Z,5.63
2018-03-08T20:07:44.363Z,5.83
2018-03-08T20:10:12.666Z,5.63
2018-03-08T20:12:41.012Z,5.83
2018-03-08T20:15:09.701Z,6.13
2018-03-08T20:17:38.038Z,5.40
2018-03-08T20:20:06.350Z,6.10
2018-03-08T20:22:34.678Z,5.93
2018-03-08T20:25:02.998Z,4.73
2018-03-08T20:27:31.457Z,6.07
2018-03-08T20:29:59.759Z,5.00
2018-03-08T20:32:28.298Z,5.03
2018-03-08T20:34:56.613Z,4.10
2018-03-08T20:37:24.949Z,5.90
2018-03-08T20:42:14.486Z,5.33
2018-03-08T20:44:42.804Z,5.53
2018-03-08T20:47:11.238Z,5.73
2018-03-08T20:49:39.649Z,5.63
2018-03-08T20:52:07.968Z,5.80
2018-03-08T20:54:36.296Z,5.20
2018-03-08T20:57:04.624Z,5.67
2018-03-08T20:59:32.938Z,5.77
2018-03-08T21:02:01.330Z,5.93
2018-03-08T21:04:29.637Z,5.13
2018-03-08T21:06:58.050Z,4.50
2018-03-08T21:09:26.468Z,4.73
2018-03-08T21:11:54.774Z,5.47
2018-03-08T21:14:23.114Z,4.33
2018-03-08T21:16:51.409Z,4.47
2018-03-08T21:19:19.765Z,5.10
2018-03-08T21:21:48.115Z,5.17
2018-03-08T21:24:16.460Z,4.17
2018-03-08T21:26:44.792Z,3.73
2018-03-08T21:29:13.187Z,4.70
2018-03-08T21:31:41.553Z,3.67
2018-03-08T21:34:09.891Z,4.13
2018-03-08T21:36:45.192Z,4.60
2018-03-08T21:39:17.737Z,4.20
2018-03-08T21:41:46.047Z,4.27
2018-03-08T21:44:14.452Z,3.40
2018-03-08T21:46:42.862Z,3.43
2018-03-08T21:49:11.253Z,3.30
2018-03-08T21:51:39.587Z,3.47
2018-03-08T21:54:08.057Z,3.80
2018-03-08T21:56:36.372Z,3.13
2018-03-08T21:59:04.722Z,3.00
2018-03-08T22:01:33.038Z,3.77
2018-03-08T22:04:01.418Z,3.60
2018-03-08T22:06:30.552Z,3.30
2018-03-08T22:08:58.905Z,3.47
2018-03-08T22:11:27.319Z,3.60
2018-03-08T22:13:55.712Z,4.80
2018-03-08T22:16:24.079Z,5.17
2018-03-08T22:18:52.390Z,4.40
2018-03-08T22:21:20.774Z,4.00
2018-03-08T22:23:49.158Z,3.47
2018-03-08T22:26:17.649Z,4.07
2018-03-08T22:28:46.053Z,3.23
2018-03-08T22:31:14.370Z,2.23
2018-03-08T22:33:42.690Z,2.30
2018-03-08T22:36:11.101Z,1.60
2018-03-08T22:38:39.503Z,2.40
2018-03-08T22:41:07.984Z,1.97
2018-03-08T22:43:36.383Z,2.47
2018-03-08T22:46:04.698Z,1.90
2018-03-08T22:48:33.010Z,2.33
2018-03-08T22:51:01.373Z,1.70
2018-03-08T22:53:29.682Z,1.93
2018-03-08T22:55:58.002Z,2.07
2018-03-08T22:58:26.326Z,2.40
2018-03-08T23:00:54.817Z,1.90
2018-03-08T23:03:29.201Z,1.70
2018-03-08T23:05:57.941Z,1.80
2018-03-08T23:08:26.251Z,2.20
2018-03-08T23:10:54.677Z,1.73
2018-03-08T23:13:22.998Z,1.70
2018-03-08T23:15:51.315Z,1.80
2018-03-08T23:18:19.650Z,1.50
2018-03-08T23:20:48.201Z,2.00
2018-03-08T23:23:16.507Z,2.73
2018-03-08T23:25:44.817Z,2.27
2018-03-08T23:28:13.126Z,2.33
2018-03-08T23:30:41.434Z,1.80
2018-03-08T23:33:10.345Z,1.07
2018-03-08T23:35:38.658Z,1.10
2018-03-08T23:38:07.486Z,1.20
2018-03-08T23:40:35.798Z,0.90
2018-03-08T23:43:04.353Z,1.07
2018-03-08T23:45:32.668Z,0.80
2018-03-08T23:48:00.988Z,0.90
2018-03-08T23:50:29.295Z,0.80
2018-03-08T23:52:57.646Z,0.80
2018-03-08T23:55:25.950Z,1.37
2018-03-08T23:57:54.264Z,1.13
